Time;durP1;ratioP1;P1;durP2;ratioP2;P2;SDS_P1;SDS_P2;PMS_P1;PMS_P2;Temp;Humidity;BMP_temperature;BMP_pressure;BME280_temperature;BME280_humidity;BME280_pressure;Samples;Min_cycle;Max_cycle;Signal;HPM_P1;HPM_P2
2021/10/25 00:01:48;;;;;;;2.10;1.00;;;7.70;63.20;;;;;;5030261;28;20034;-86
2021/10/25 00:04:14;;;;;;;2.43;1.37;;;7.80;63.10;;;;;;5029517;28;20037;-85
2021/10/25 00:06:39;;;;;;;8.93;1.50;;;7.80;62.80;;;;;;5030441;28;20037;-85
2021/10/25 00:09:05;;;;;;;3.30;1.20;;;7.70;62.60;;;;;;5029228;28;20079;-86
2021/10/25 00:11:34;;;;;;;2.90;1.40;;;7.70;62.60;;;;;;5033429;28;20064;-85
2021/10/25 00:14:00;;;;;;;2.10;1.30;;;7.70;62.80;;;;;;5032552;28;20033;-85
2021/10/25 00:16:25;;;;;;;2.60;1.60;;;7.60;62.80;;;;;;5036566;28;20029;-85
2021/10/25 00:18:51;;;;;;;4.97;1.60;;;7.50;63.60;;;;;;5029435;28;20115;-85
2021/10/25 00:21:17;;;;;;;2.57;1.67;;;7.50;63.10;;;;;;5030883;28;20522;-85
2021/10/25 00:23:43;;;;;;;2.80;1.40;;;7.50;63.10;;;;;;5030391;28;20191;-85
2021/10/25 00:26:09;;;;;;;3.63;1.20;;;7.50;63.10;;;;;;5030722;28;20120;-86
2021/10/25 00:28:34;;;;;;;1.77;1.10;;;7.50;63.20;;;;;;5031404;28;20025;-85
2021/10/25 00:31:00;;;;;;;3.50;1.10;;;7.40;63.40;;;;;;5024982;28;20132;-85
2021/10/25 00:33:26;;;;;;;1.73;1.00;;;7.40;63.50;;;;;;5011693;28;20528;-86
2021/10/25 00:35:53;;;;;;;1.27;0.90;;;7.40;63.60;;;;;;5017933;28;20048;-85
2021/10/25 00:38:19;;;;;;;3.07;1.30;;;7.40;63.60;;;;;;5019396;28;20396;-85
2021/10/25 00:40:46;;;;;;;2.40;1.53;;;7.30;63.60;;;;;;5010561;28;20543;-85
2021/10/25 00:43:12;;;;;;;7.23;2.00;;;7.30;63.60;;;;;;5004465;28;20029;-85
2021/10/25 00:45:37;;;;;;;3.60;1.70;;;7.30;63.60;;;;;;5011740;28;20068;-85
2021/10/25 00:48:04;;;;;;;2.13;1.17;;;7.40;63.60;;;;;;5008596;28;20076;-85
2021/10/25 00:50:29;;;;;;;1.60;0.90;;;7.30;63.50;;;;;;5009445;28;20030;-85
2021/10/25 00:52:55;;;;;;;2.80;1.50;;;7.20;63.80;;;;;;5010610;28;20034;-85
2021/10/25 00:55:22;;;;;;;3.00;1.17;;;7.20;63.80;;;;;;5007979;28;20022;-85
2021/10/25 00:57:47;;;;;;;3.10;1.40;;;7.20;63.80;;;;;;5015035;28;20064;-86
2021/10/25 01:00:13;;;;;;;1.90;1.37;;;7.20;63.60;;;;;;5008054;28;20147;-86
2021/10/25 01:02:39;;;;;;;2.67;1.70;;;7.20;63.70;;;;;;5010710;28;20041;-86
2021/10/25 01:05:06;;;;;;;3.50;1.63;;;7.20;63.80;;;;;;5024414;28;20370;-86
2021/10/25 01:07:33;;;;;;;3.93;2.00;;;7.30;63.80;;;;;;5023797;28;20030;-86
2021/10/25 01:10:06;;;;;;;2.30;1.50;;;7.20;63.90;;;;;;5009443;28;20060;-85
2021/10/25 01:12:34;;;;;;;3.63;1.80;;;7.10;64.10;;;;;;5007989;28;20033;-85
2021/10/25 01:15:00;;;;;;;3.63;1.83;;;7.10;64.20;;;;;;5009009;28;20117;-85
2021/10/25 01:17:27;;;;;;;3.67;2.10;;;7.10;64.40;;;;;;5010131;28;20118;-85
2021/10/25 01:19:54;;;;;;;2.67;1.27;;;7.00;64.40;;;;;;5024311;28;20117;-84
2021/10/25 01:22:21;;;;;;;2.40;1.60;;;7.00;64.50;;;;;;5015483;28;20021;-85
2021/10/25 01:24:47;;;;;;;2.07;1.37;;;7.10;64.40;;;;;;5005878;28;20087;-85
2021/10/25 01:27:13;;;;;;;3.70;1.77;;;7.10;64.30;;;;;;5004899;28;20030;-85
2021/10/25 01:29:38;;;;;;;2.60;1.90;;;7.00;64.30;;;;;;5011155;28;20045;-84
2021/10/25 01:32:04;;;;;;;3.67;1.67;;;7.00;64.20;;;;;;5026783;28;20045;-85
2021/10/25 01:34:30;;;;;;;4.70;2.20;;;7.00;64.40;;;;;;5033238;28;20490;-85
2021/10/25 01:36:56;;;;;;;5.57;2.03;;;7.00;64.50;;;;;;5032270;28;20066;-84
2021/10/25 01:39:22;;;;;;;6.23;3.80;;;7.00;64.50;;;;;;5029628;28;20051;-84
2021/10/25 01:41:47;;;;;;;3.07;1.93;;;7.00;64.60;;;;;;5032213;28;20127;-84
2021/10/25 01:44:14;;;;;;;4.50;1.67;;;7.10;64.70;;;;;;5041465;28;20071;-84
2021/10/25 01:46:43;;;;;;;3.80;1.60;;;7.10;64.40;;;;;;5024673;28;20388;-85
2021/10/25 01:49:09;;;;;;;4.27;2.10;;;7.00;64.60;;;;;;5031678;28;20034;-85
2021/10/25 01:51:35;;;;;;;6.37;2.60;;;7.00;64.80;;;;;;5023916;28;20075;-86
2021/10/25 01:54:02;;;;;;;4.83;1.90;;;7.00;64.80;;;;;;5034841;28;20025;-85
2021/10/25 01:56:29;;;;;;;4.90;1.70;;;7.00;64.90;;;;;;5032790;28;20059;-86
2021/10/25 01:58:56;;;;;;;3.37;1.83;;;7.00;64.80;;;;;;5028938;28;20423;-86
2021/10/25 02:01:23;;;;;;;3.37;1.60;;;7.00;64.80;;;;;;5029827;28;20160;-85
2021/10/25 02:03:50;;;;;;;4.83;1.87;;;6.90;65.00;;;;;;5048894;28;20097;-86
2021/10/25 02:06:16;;;;;;;3.63;1.70;;;6.90;65.20;;;;;;5032114;28;20053;-86
2021/10/25 02:08:41;;;;;;;3.17;1.77;;;6.90;65.30;;;;;;5031017;28;20034;-86
2021/10/25 02:11:13;;;;;;;4.00;2.00;;;6.90;65.40;;;;;;5037908;28;20021;-86
2021/10/25 02:13:41;;;;;;;3.03;1.60;;;6.80;65.60;;;;;;5049400;28;20068;-85
2021/10/25 02:16:08;;;;;;;3.20;1.50;;;6.80;65.70;;;;;;5032893;28;20384;-86
2021/10/25 02:18:33;;;;;;;6.50;2.07;;;6.90;65.60;;;;;;5026400;28;20026;-86
2021/10/25 02:20:59;;;;;;;2.93;1.60;;;6.90;65.70;;;;;;5050582;28;20033;-86
2021/10/25 02:23:26;;;;;;;3.17;1.87;;;6.90;65.70;;;;;;5034088;28;20484;-86
2021/10/25 02:25:53;;;;;;;3.97;2.50;;;6.90;65.50;;;;;;5032360;28;20041;-86
2021/10/25 02:28:19;;;;;;;3.40;2.07;;;6.90;65.30;;;;;;5031959;28;20480;-86
2021/10/25 02:30:44;;;;;;;4.23;2.20;;;6.90;65.40;;;;;;5034099;28;20029;-86
2021/10/25 02:33:10;;;;;;;3.07;1.83;;;6.90;65.60;;;;;;5039799;28;20078;-85
2021/10/25 02:35:38;;;;;;;4.03;2.30;;;6.90;65.50;;;;;;5033990;28;20541;-86
2021/10/25 02:38:03;;;;;;;3.23;1.80;;;6.90;65.60;;;;;;5033859;28;20033;-85
2021/10/25 02:40:30;;;;;;;3.87;1.73;;;6.90;65.80;;;;;;5036527;28;20032;-85
2021/10/25 02:42:57;;;;;;;2.90;1.63;;;7.00;65.70;;;;;;5035754;28;20021;-85
2021/10/25 02:45:23;;;;;;;2.53;1.50;;;6.90;65.60;;;;;;5033504;28;20025;-85
2021/10/25 02:47:49;;;;;;;1.40;1.30;;;6.90;65.50;;;;;;5051690;28;20664;-86
2021/10/25 02:50:15;;;;;;;2.97;1.50;;;6.90;65.60;;;;;;5034724;28;20116;-85
2021/10/25 02:52:41;;;;;;;6.87;1.57;;;6.90;65.70;;;;;;5032128;28;20772;-86
2021/10/25 02:55:07;;;;;;;3.50;1.50;;;6.90;65.70;;;;;;5035348;28;20032;-86
2021/10/25 02:57:33;;;;;;;2.60;1.57;;;6.90;65.70;;;;;;5038118;28;20351;-85
2021/10/25 02:59:59;;;;;;;3.63;1.30;;;6.80;65.90;;;;;;5036927;28;20108;-86
2021/10/25 03:02:26;;;;;;;1.90;1.30;;;6.90;66.10;;;;;;5035799;28;20033;-85
2021/10/25 03:04:52;;;;;;;2.67;1.47;;;6.90;66.00;;;;;;5032785;28;20052;-85
2021/10/25 03:07:18;;;;;;;3.03;1.80;;;6.90;66.00;;;;;;5030211;28;20127;-85
2021/10/25 03:09:43;;;;;;;2.03;1.30;;;6.90;66.00;;;;;;5035774;28;20491;-85
2021/10/25 03:12:09;;;;;;;4.70;2.20;;;6.80;66.20;;;;;;5034599;28;20090;-85
2021/10/25 03:14:35;;;;;;;5.17;2.90;;;6.80;66.40;;;;;;5052577;28;20092;-85
2021/10/25 03:17:00;;;;;;;5.07;2.53;;;6.90;66.40;;;;;;5034068;28;20436;-85
2021/10/25 03:19:27;;;;;;;5.23;2.30;;;6.90;66.20;;;;;;5050684;28;20119;-85
2021/10/25 03:21:53;;;;;;;3.47;1.90;;;6.90;66.10;;;;;;5034674;28;20047;-85
2021/10/25 03:24:19;;;;;;;6.70;1.97;;;6.90;66.20;;;;;;5034339;28;20555;-85
2021/10/25 03:26:45;;;;;;;3.47;1.50;;;6.90;66.20;;;;;;5033518;28;20036;-85
2021/10/25 03:29:11;;;;;;;5.13;1.73;;;6.90;66.10;;;;;;5035481;28;20147;-85
2021/10/25 03:31:37;;;;;;;2.80;1.50;;;6.90;66.20;;;;;;5052631;28;20072;-85
2021/10/25 03:34:03;;;;;;;4.87;1.90;;;6.90;66.30;;;;;;5024900;28;20431;-85
2021/10/25 03:36:31;;;;;;;11.70;2.83;;;6.90;66.70;;;;;;5034565;28;20017;-85
2021/10/25 03:38:57;;;;;;;4.80;2.47;;;6.90;66.20;;;;;;5029937;28;20091;-86
2021/10/25 03:41:58;;;;;;;3.03;1.93;;;6.90;66.40;;;;;;5033220;28;20438;-86
2021/10/25 03:44:21;;;;;;;2.03;1.30;;;6.80;66.30;;;;;;5034895;28;20030;-86
2021/10/25 03:46:53;;;;;;;3.93;1.43;;;6.80;66.60;;;;;;5044823;28;20037;-86
2021/10/25 03:51:48;;;;;;;1.63;1.00;;;6.90;66.40;;;;;;5045976;28;20116;-86
2021/10/25 03:54:34;;;;;;;3.00;1.37;;;6.90;66.50;;;;;;5029516;28;20037;-87
2021/10/25 04:29:04;;;;;;;3.00;1.80;;;6.90;66.80;;;;;;5054186;28;20037;-86
2021/10/25 04:31:30;;;;;;;3.73;2.10;;;6.80;67.00;;;;;;5042712;28;20166;-86
2021/10/25 04:33:55;;;;;;;3.53;2.50;;;6.80;67.10;;;;;;5027851;28;20111;-86
2021/10/25 04:36:21;;;;;;;5.73;2.20;;;6.90;67.20;;;;;;5033588;28;20029;-86
2021/10/25 04:38:48;;;;;;;6.13;3.10;;;6.90;67.10;;;;;;5048205;28;20036;-86
2021/10/25 04:41:13;;;;;;;5.07;3.03;;;6.90;67.20;;;;;;5034364;28;20052;-86
2021/10/25 04:43:40;;;;;;;9.13;2.70;;;6.80;67.20;;;;;;5033378;28;20465;-85
2021/10/25 04:46:06;;;;;;;4.83;2.67;;;6.90;67.30;;;;;;5031411;28;20024;-85
2021/10/25 04:48:31;;;;;;;4.03;2.50;;;6.90;67.30;;;;;;5032934;28;20140;-86
2021/10/25 04:50:57;;;;;;;5.53;2.90;;;6.80;67.30;;;;;;5025162;28;20087;-87
2021/10/25 04:53:23;;;;;;;9.40;2.77;;;6.80;67.60;;;;;;5050229;28;20099;-87
2021/10/25 04:55:49;;;;;;;7.27;2.83;;;6.80;67.70;;;;;;5034861;28;20040;-86
2021/10/25 04:58:15;;;;;;;4.87;2.90;;;6.80;67.60;;;;;;5034359;28;20078;-87
2021/10/25 05:00:41;;;;;;;10.40;3.57;;;6.80;67.50;;;;;;5050144;28;20021;-86
2021/10/25 05:03:06;;;;;;;5.20;3.13;;;6.90;67.50;;;;;;5032821;28;20029;-86
2021/10/25 05:05:33;;;;;;;4.93;3.20;;;6.90;67.40;;;;;;5031602;28;20893;-86
2021/10/25 05:07:59;;;;;;;7.30;3.53;;;6.90;67.40;;;;;;5030155;28;20078;-86
2021/10/25 05:10:30;;;;;;;7.77;3.17;;;6.90;67.30;;;;;;5034600;28;20056;-86
2021/10/25 05:12:56;;;;;;;4.83;3.13;;;6.90;67.60;;;;;;5028436;28;20060;-86
2021/10/25 05:15:22;;;;;;;4.93;3.17;;;6.90;67.50;;;;;;5046162;28;20071;-85
2021/10/25 05:17:48;;;;;;;4.80;3.27;;;6.90;67.30;;;;;;5030798;28;20078;-86
2021/10/25 05:20:14;;;;;;;5.83;3.40;;;6.90;67.30;;;;;;5033542;28;20028;-86
2021/10/25 05:22:39;;;;;;;7.77;3.63;;;6.90;67.50;;;;;;5048365;28;20112;-86
2021/10/25 05:25:06;;;;;;;7.43;4.27;;;6.90;67.60;;;;;;5025799;28;20040;-86
2021/10/25 05:27:33;;;;;;;10.77;4.40;;;6.90;67.50;;;;;;5028444;28;20044;-86
2021/10/25 05:29:58;;;;;;;9.43;4.73;;;6.90;67.60;;;;;;5034358;28;20039;-86
2021/10/25 05:32:24;;;;;;;12.47;4.87;;;6.90;67.50;;;;;;5025242;28;20110;-86
2021/10/25 05:34:52;;;;;;;10.33;4.90;;;6.90;67.60;;;;;;5028508;28;20032;-86
2021/10/25 05:37:18;;;;;;;12.47;5.83;;;6.70;67.70;;;;;;5048008;28;20475;-85
2021/10/25 05:39:44;;;;;;;9.30;5.33;;;6.60;68.10;;;;;;5028066;28;20422;-86
2021/10/25 05:42:10;;;;;;;7.47;4.60;;;6.60;68.50;;;;;;5032954;28;20104;-86
2021/10/25 05:44:36;;;;;;;9.67;5.37;;;6.50;68.60;;;;;;5033023;28;20044;-86
2021/10/25 05:47:03;;;;;;;8.87;5.33;;;6.50;68.70;;;;;;5029981;28;20027;-86
2021/10/25 05:49:29;;;;;;;7.73;4.97;;;6.50;68.60;;;;;;5030857;28;20063;-86
2021/10/25 05:51:55;;;;;;;8.93;5.13;;;6.60;68.50;;;;;;5032760;28;20060;-86
2021/10/25 05:54:21;;;;;;;10.17;5.40;;;6.60;68.30;;;;;;5024901;28;20018;-86
2021/10/25 05:56:48;;;;;;;9.77;4.83;;;6.70;68.50;;;;;;5032034;28;20022;-86
2021/10/25 05:59:14;;;;;;;7.40;5.30;;;6.70;68.40;;;;;;5050674;28;20025;-86
2021/10/25 06:01:56;;;;;;;12.10;5.57;;;6.80;68.30;;;;;;5039741;28;21016;-86
2021/10/25 06:04:24;;;;;;;13.20;6.03;;;6.80;68.10;;;;;;5031712;28;20767;-85
2021/10/25 06:06:50;;;;;;;13.43;6.83;;;6.70;68.20;;;;;;5032074;28;20029;-86
2021/10/25 06:09:16;;;;;;;21.90;7.13;;;6.80;68.20;;;;;;5058893;28;20020;-86
2021/10/25 06:11:47;;;;;;;15.83;9.33;;;6.80;68.30;;;;;;5039260;28;20029;-86
2021/10/25 06:14:15;;;;;;;20.43;11.67;;;6.80;68.40;;;;;;5032655;28;20506;-86
2021/10/25 06:16:43;;;;;;;20.37;11.83;;;6.90;68.30;;;;;;5020979;28;20057;-86
2021/10/25 06:19:11;;;;;;;26.00;12.90;;;7.00;68.30;;;;;;5030293;28;20025;-85
2021/10/25 06:21:37;;;;;;;28.30;13.90;;;7.00;68.20;;;;;;5035069;28;20111;-86
2021/10/25 06:24:03;;;;;;;15.50;9.50;;;7.00;68.10;;;;;;5033739;28;20416;-86
2021/10/25 06:26:30;;;;;;;15.23;8.60;;;6.90;68.10;;;;;;5038195;28;20024;-87
2021/10/25 06:28:56;;;;;;;9.10;6.17;;;6.90;68.40;;;;;;5031421;28;20051;-86
2021/10/25 06:31:23;;;;;;;12.47;6.87;;;7.00;68.20;;;;;;5034509;28;20059;-86
2021/10/25 06:33:49;;;;;;;9.67;5.73;;;6.90;68.30;;;;;;5052394;28;20420;-86
2021/10/25 06:36:22;;;;;;;11.77;6.13;;;7.00;68.30;;;;;;5035649;28;20037;-86
2021/10/25 06:41:17;;;;;;;13.10;6.00;;;6.90;68.20;;;;;;5054292;28;20028;-86
2021/10/25 06:43:44;;;;;;;11.43;6.07;;;6.90;68.60;;;;;;5031788;28;20479;-86
2021/10/25 06:46:11;;;;;;;10.73;6.03;;;6.90;68.50;;;;;;5035076;28;20025;-86
2021/10/25 06:48:36;;;;;;;8.47;5.57;;;7.00;68.40;;;;;;5036668;28;20645;-86
2021/10/25 06:51:02;;;;;;;13.73;6.67;;;7.00;68.30;;;;;;5040181;28;20038;-86
2021/10/25 06:53:29;;;;;;;11.70;6.27;;;7.00;68.30;;;;;;5035289;28;20036;-86
2021/10/25 06:55:55;;;;;;;10.00;6.00;;;7.00;68.30;;;;;;5037257;28;20048;-86
2021/10/25 06:58:21;;;;;;;12.20;6.20;;;7.00;68.50;;;;;;5034412;28;20083;-86
2021/10/25 07:00:48;;;;;;;11.23;6.13;;;7.00;68.80;;;;;;5034803;28;20021;-87
2021/10/25 07:03:14;;;;;;;12.93;6.50;;;7.00;68.50;;;;;;5045606;28;20028;-86
2021/10/25 07:05:41;;;;;;;14.73;8.87;;;7.10;68.50;;;;;;5032961;28;20399;-86
2021/10/25 07:08:07;;;;;;;74.73;28.73;;;7.10;68.50;;;;;;5036825;28;20028;-87
2021/10/25 07:10:39;;;;;;;33.23;14.63;;;7.10;68.50;;;;;;5038446;28;20035;-86
2021/10/25 07:13:06;;;;;;;16.42;9.20;;;7.10;68.40;;;;;;5040650;28;20120;-86
2021/10/25 07:15:33;;;;;;;11.70;7.00;;;7.10;68.50;;;;;;5034125;28;20025;-86
2021/10/25 07:20:55;;;;;;;11.77;6.83;;;7.10;68.60;;;;;;5051240;28;20044;-86
2021/10/25 08:07:02;;;;;;;13.77;6.63;;;7.80;68.70;;;;;;5049958;28;20122;-86
2021/10/25 08:12:06;;;;;;;10.90;5.57;;;7.80;68.40;;;;;;5051787;28;20041;-86
2021/10/25 08:14:42;;;;;;;12.13;6.03;;;7.70;68.40;;;;;;5050371;28;20021;-86
2021/10/25 08:17:09;;;;;;;9.20;6.43;;;7.70;68.80;;;;;;5035098;28;20025;-86
2021/10/25 08:19:35;;;;;;;11.50;7.23;;;7.70;68.80;;;;;;5034386;28;20414;-86
2021/10/25 08:22:09;;;;;;;14.60;8.10;;;7.80;68.70;;;;;;5033673;28;20021;-86
2021/10/25 08:24:38;;;;;;;8.40;5.50;;;7.80;68.80;;;;;;5034172;28;20032;-86
2021/10/25 08:27:05;;;;;;;10.07;5.73;;;7.90;68.70;;;;;;5034763;28;20028;-86
2021/10/25 08:29:34;;;;;;;12.73;8.00;;;7.90;68.40;;;;;;5035298;28;20039;-86
2021/10/25 08:32:14;;;;;;;8.43;6.23;;;7.90;68.70;;;;;;5035419;28;22419;-86
2021/10/25 08:39:58;;;;;;;17.23;6.67;;;8.00;68.60;;;;;;5052366;28;20047;-86
2021/10/25 08:42:27;;;;;;;14.00;6.93;;;8.10;68.70;;;;;;5030727;28;20036;-88
2021/10/25 08:44:58;;;;;;;10.73;6.23;;;8.10;68.60;;;;;;5049328;28;20115;-87
2021/10/25 08:47:28;;;;;;;13.00;6.63;;;8.20;68.50;;;;;;5033878;28;20415;-87
2021/10/25 08:50:04;;;;;;;10.27;6.40;;;8.20;68.50;;;;;;5033620;28;20040;-87
2021/10/25 08:52:30;;;;;;;11.70;6.37;;;8.30;68.60;;;;;;5047859;28;20029;-86
2021/10/25 08:54:59;;;;;;;16.93;7.60;;;8.30;68.60;;;;;;5034177;28;20025;-87
2021/10/25 08:57:26;;;;;;;13.67;7.27;;;8.40;68.50;;;;;;5047122;28;20037;-87
2021/10/25 09:00:05;;;;;;;12.03;7.43;;;8.30;68.40;;;;;;5043955;28;20380;-87
2021/10/25 09:02:30;;;;;;;19.10;7.30;;;8.40;68.70;;;;;;5034456;28;20395;-87
2021/10/25 09:05:07;;;;;;;15.57;6.33;;;8.50;68.60;;;;;;5031288;28;20029;-87
2021/10/25 09:07:55;;;;;;;17.00;7.40;;;8.50;68.60;;;;;;5035284;28;20067;-86
2021/10/25 09:10:24;;;;;;;20.67;7.40;;;8.50;68.50;;;;;;5019206;28;20047;-86
2021/10/25 09:13:02;;;;;;;12.70;7.07;;;8.50;68.30;;;;;;5034338;28;20411;-86
2021/10/25 09:15:38;;;;;;;20.60;12.20;;;8.60;68.60;;;;;;5034241;28;20044;-86
2021/10/25 09:18:15;;;;;;;13.47;6.80;;;8.60;68.50;;;;;;5031803;28;20025;-86
2021/10/25 09:20:43;;;;;;;10.87;5.87;;;8.70;68.30;;;;;;5047047;28;20029;-86
2021/10/25 09:23:11;;;;;;;9.47;5.23;;;8.80;68.00;;;;;;5031520;28;20484;-86
2021/10/25 09:25:38;;;;;;;11.27;5.97;;;8.70;67.60;;;;;;5026293;28;20742;-86
2021/10/25 09:28:15;;;;;;;12.33;5.90;;;8.70;67.50;;;;;;5035264;28;20448;-86
2021/10/25 09:30:47;;;;;;;19.37;6.27;;;8.80;67.50;;;;;;5032889;28;20385;-86
2021/10/25 09:33:20;;;;;;;10.80;5.90;;;8.80;67.30;;;;;;5049311;28;20484;-86
2021/10/25 09:35:50;;;;;;;16.17;6.30;;;8.90;67.40;;;;;;5047651;28;20028;-86
2021/10/25 09:38:35;;;;;;;12.03;6.73;;;8.90;67.30;;;;;;5045543;28;20017;-86
2021/10/25 09:41:53;;;;;;;18.07;6.13;;;9.00;67.40;;;;;;5034507;28;20021;-87
2021/10/25 09:50:10;;;;;;;10.57;6.40;;;9.00;66.90;;;;;;5050765;28;20087;-86
2021/10/25 09:52:42;;;;;;;14.53;6.33;;;9.10;66.80;;;;;;5034459;28;20053;-86
2021/10/25 09:55:14;;;;;;;11.43;6.60;;;9.10;66.60;;;;;;5038062;28;20431;-86
2021/10/25 09:58:03;;;;;;;14.48;6.60;;;9.20;67.20;;;;;;5053494;28;20029;-86
2021/10/25 10:00:29;;;;;;;12.93;6.00;;;9.30;66.50;;;;;;5032299;28;20029;-86
2021/10/25 10:02:54;;;;;;;9.37;5.50;;;9.40;66.10;;;;;;5035236;28;20029;-86
2021/10/25 10:05:24;;;;;;;12.87;5.47;;;9.40;66.80;;;;;;5038795;28;20029;-86
2021/10/25 10:07:50;;;;;;;12.70;7.00;;;9.50;66.10;;;;;;5055500;28;20055;-86
2021/10/25 10:10:20;;;;;;;17.03;7.63;;;9.60;65.80;;;;;;5035039;28;20029;-86
2021/10/25 10:12:48;;;;;;;7.77;5.27;;;9.70;65.80;;;;;;5035855;28;20055;-86
2021/10/25 10:15:14;;;;;;;12.10;6.10;;;9.80;65.30;;;;;;5036482;28;20078;-86
2021/10/25 10:17:47;;;;;;;8.73;5.43;;;9.80;65.10;;;;;;5037308;28;20418;-86
2021/10/25 10:20:27;;;;;;;9.13;5.25;;;9.90;64.80;;;;;;5037763;28;20389;-86
2021/10/25 10:22:56;;;;;;;8.83;4.80;;;10.00;64.50;;;;;;5034751;28;20825;-86
2021/10/25 10:25:29;;;;;;;13.63;7.37;;;10.10;64.10;;;;;;5033820;28;20113;-86
2021/10/25 10:28:07;;;;;;;19.77;9.47;;;10.20;64.20;;;;;;5035107;28;20029;-86
2021/10/25 10:30:58;;;;;;;10.40;6.63;;;10.30;64.40;;;;;;5035677;28;20028;-86
2021/10/25 10:33:41;;;;;;;15.27;6.97;;;10.30;64.40;;;;;;5056328;28;20029;-86
2021/10/25 10:36:12;;;;;;;11.10;7.07;;;10.40;64.40;;;;;;5037474;28;20024;-86
2021/10/25 10:38:54;;;;;;;14.18;7.47;;;10.50;64.10;;;;;;5034553;28;20483;-86
2021/10/25 10:41:41;;;;;;;12.67;7.77;;;10.60;63.90;;;;;;5036952;28;20036;-86
2021/10/25 10:44:16;;;;;;;13.37;7.40;;;10.70;64.00;;;;;;5034588;28;20059;-86
2021/10/25 10:46:49;;;;;;;17.20;7.03;;;10.80;63.80;;;;;;5057591;28;20464;-86
2021/10/25 10:49:20;;;;;;;;;;;10.90;63.60;;;;;;5036894;28;20112;-86
2021/10/25 10:52:26;;;;;;;17.43;7.00;;;11.00;63.40;;;;;;5046074;28;20010;-86
2021/10/25 10:57:41;;;;;;;12.57;6.40;;;11.30;63.10;;;;;;5054713;28;20033;-86
2021/10/25 11:00:09;;;;;;;13.97;7.57;;;11.30;62.60;;;;;;5036801;28;20468;-86
2021/10/25 11:02:37;;;;;;;12.70;7.27;;;11.30;62.50;;;;;;5037045;28;20059;-86
2021/10/25 11:05:09;;;;;;;17.40;7.70;;;11.30;62.10;;;;;;5033151;28;20410;-86
2021/10/25 11:07:41;;;;;;;14.13;8.35;;;11.30;62.00;;;;;;5034826;28;20096;-86
2021/10/25 11:10:10;;;;;;;12.68;6.07;;;11.40;62.10;;;;;;5052208;28;20056;-86
2021/10/25 11:12:43;;;;;;;10.20;5.93;;;11.50;61.90;;;;;;5037118;28;20052;-86
2021/10/25 11:15:13;;;;;;;12.37;6.47;;;11.50;61.60;;;;;;5052011;28;20025;-86
2021/10/25 11:17:39;;;;;;;10.43;6.43;;;11.60;61.40;;;;;;5040331;28;20032;-86
2021/10/25 11:20:05;;;;;;;14.53;6.63;;;11.60;61.50;;;;;;5035515;28;20033;-85
2021/10/25 11:22:32;;;;;;;12.50;6.57;;;11.60;61.70;;;;;;5033421;28;20042;-86
2021/10/25 11:25:06;;;;;;;14.13;7.60;;;11.60;61.50;;;;;;5033465;28;20033;-86
2021/10/25 11:27:35;;;;;;;10.90;6.23;;;11.60;61.80;;;;;;5046907;28;20459;-86
2021/10/25 11:30:27;;;;;;;11.77;5.83;;;11.60;61.70;;;;;;5035669;28;20059;-86
2021/10/25 11:32:53;;;;;;;17.00;6.20;;;11.50;61.40;;;;;;5027697;28;20514;-86
2021/10/25 11:35:19;;;;;;;8.90;5.40;;;11.50;61.40;;;;;;5037233;28;20049;-85
2021/10/25 11:37:51;;;;;;;8.20;5.33;;;11.50;61.00;;;;;;5052975;28;20437;-86
2021/10/25 11:40:23;;;;;;;10.40;5.45;;;11.60;61.00;;;;;;5035634;28;20447;-86
2021/10/25 11:42:48;;;;;;;14.17;4.87;;;11.60;61.00;;;;;;5041899;28;20153;-86
2021/10/25 11:45:25;;;;;;;8.67;5.23;;;11.70;60.80;;;;;;5049819;28;20039;-85
2021/10/25 11:47:52;;;;;;;9.10;4.83;;;11.70;60.50;;;;;;5036607;28;20036;-86
2021/10/25 11:50:26;;;;;;;9.97;5.03;;;11.70;60.20;;;;;;5035085;28;20074;-86
2021/10/25 11:52:54;;;;;;;8.07;4.93;;;11.70;60.10;;;;;;5035692;28;20107;-85
2021/10/25 11:55:25;;;;;;;10.80;5.30;;;11.70;60.20;;;;;;5033492;28;20455;-86
2021/10/25 11:57:54;;;;;;;12.13;5.23;;;11.70;60.20;;;;;;5035223;28;20057;-86
2021/10/25 12:00:23;;;;;;;9.27;4.87;;;11.70;60.10;;;;;;5035252;28;20021;-86
2021/10/25 12:02:49;;;;;;;9.13;5.23;;;11.70;60.00;;;;;;5038608;28;20029;-85
2021/10/25 12:05:25;;;;;;;11.10;5.97;;;11.80;59.90;;;;;;5035011;28;20029;-86
2021/10/25 12:07:54;;;;;;;9.53;4.97;;;11.80;59.60;;;;;;5034131;28;20037;-86
2021/10/25 12:10:26;;;;;;;7.93;4.37;;;11.90;59.30;;;;;;5066361;28;20448;-86
2021/10/25 12:12:59;;;;;;;10.80;4.47;;;11.90;59.30;;;;;;5043791;28;20033;-86
2021/10/25 12:15:27;;;;;;;7.77;3.83;;;11.90;59.20;;;;;;5033722;28;20028;-86
2021/10/25 12:17:58;;;;;;;10.00;4.33;;;11.90;59.00;;;;;;5052378;28;20485;-86
2021/10/25 12:20:32;;;;;;;11.90;4.07;;;11.90;58.90;;;;;;5066543;28;20282;-86
2021/10/25 12:23:19;;;;;;;8.47;5.03;;;12.00;58.70;;;;;;5034680;28;20025;-86
2021/10/25 12:25:59;;;;;;;15.87;5.60;;;12.00;58.50;;;;;;5052418;28;20048;-86
2021/10/25 12:28:26;;;;;;;12.73;7.80;;;12.00;58.40;;;;;;5023353;28;20502;-86
2021/10/25 12:31:07;;;;;;;10.43;7.83;;;12.10;58.40;;;;;;5035002;28;20041;-86
2021/10/25 12:33:35;;;;;;;15.63;9.37;;;12.10;58.20;;;;;;5055949;28;20048;-86
2021/10/25 12:36:19;;;;;;;15.33;9.57;;;12.10;58.30;;;;;;5033391;28;20021;-87
2021/10/25 12:38:52;;;;;;;14.63;10.13;;;12.10;58.20;;;;;;5021695;28;20413;-87
2021/10/25 12:41:18;;;;;;;17.73;9.65;;;12.10;58.30;;;;;;5035039;28;20529;-87
2021/10/25 12:43:49;;;;;;;21.50;11.17;;;12.10;58.40;;;;;;5034961;28;20124;-87
2021/10/25 12:46:21;;;;;;;13.87;10.87;;;12.10;58.50;;;;;;5034713;28;20040;-87
2021/10/25 12:48:50;;;;;;;20.02;11.80;;;12.10;58.70;;;;;;5051504;28;20111;-86
2021/10/25 12:51:20;;;;;;;22.87;10.60;;;12.10;58.80;;;;;;5034726;28;20035;-87
2021/10/25 12:53:48;;;;;;;14.87;9.80;;;12.10;58.70;;;;;;5033742;28;20040;-86
2021/10/25 12:56:27;;;;;;;15.27;8.37;;;12.10;58.80;;;;;;5028406;28;20544;-87
2021/10/25 12:59:01;;;;;;;17.90;8.67;;;12.20;58.80;;;;;;5053221;28;20032;-87
2021/10/25 13:01:27;;;;;;;13.37;7.77;;;12.20;59.20;;;;;;5024016;28;20028;-87
2021/10/25 13:03:57;;;;;;;10.70;5.77;;;12.20;58.30;;;;;;5045277;28;20067;-86
2021/10/25 13:06:29;;;;;;;10.13;5.40;;;12.20;58.10;;;;;;5046938;28;20056;-87
2021/10/25 13:09:03;;;;;;;9.45;4.82;;;12.20;57.90;;;;;;5044402;28;20033;-87
2021/10/25 13:11:28;;;;;;;10.27;5.70;;;12.30;57.70;;;;;;5034062;28;20040;-87
2021/10/25 13:14:00;;;;;;;18.03;5.97;;;12.20;57.60;;;;;;5049474;28;20025;-86
2021/10/25 13:16:34;;;;;;;12.70;6.87;;;12.30;57.60;;;;;;5031864;28;20384;-87
2021/10/25 13:18:59;;;;;;;9.57;5.70;;;12.30;57.50;;;;;;5035644;28;20035;-87
2021/10/25 13:21:25;;;;;;;10.37;5.43;;;12.30;57.50;;;;;;5035061;28;20475;-87
2021/10/25 13:23:51;;;;;;;9.70;5.23;;;12.40;57.50;;;;;;5033701;28;20036;-86
2021/10/25 13:26:17;;;;;;;12.80;5.57;;;12.40;57.30;;;;;;5047290;28;20059;-85
2021/10/25 13:28:43;;;;;;;8.07;4.90;;;12.40;57.30;;;;;;5038715;28;20029;-86
2021/10/25 13:31:09;;;;;;;11.90;5.90;;;12.40;57.30;;;;;;5038457;28;20040;-86
2021/10/25 13:33:41;;;;;;;9.10;4.53;;;12.40;57.30;;;;;;5036862;28;20450;-87
2021/10/25 13:36:07;;;;;;;9.57;4.80;;;12.50;56.90;;;;;;5055670;28;20094;-86
2021/10/25 13:38:33;;;;;;;10.60;4.93;;;12.50;56.90;;;;;;5031190;28;20057;-86
2021/10/25 13:41:01;;;;;;;8.80;5.07;;;12.50;56.80;;;;;;5051791;28;20055;-86
2021/10/25 13:43:30;;;;;;;10.13;5.17;;;12.40;56.80;;;;;;5041313;28;20052;-86
2021/10/25 13:45:56;;;;;;;10.63;5.20;;;12.50;56.70;;;;;;5038015;28;20044;-86
2021/10/25 13:48:21;;;;;;;7.67;4.57;;;12.50;56.70;;;;;;5038083;28;20021;-87
2021/10/25 13:50:47;;;;;;;11.60;4.93;;;12.50;56.50;;;;;;5055904;28;20096;-86
2021/10/25 13:53:13;;;;;;;7.90;5.67;;;12.50;56.20;;;;;;5033543;28;20436;-87
2021/10/25 13:55:39;;;;;;;7.50;4.63;;;12.50;56.10;;;;;;5037930;28;20048;-86
2021/10/25 13:58:04;;;;;;;8.83;5.27;;;12.50;56.10;;;;;;5037656;28;20021;-87
2021/10/25 14:00:36;;;;;;;10.63;5.60;;;12.50;56.10;;;;;;5037849;28;20021;-87
2021/10/25 14:03:02;;;;;;;12.13;5.72;;;12.50;55.90;;;;;;5037842;28;20517;-86
2021/10/25 14:05:29;;;;;;;10.13;5.83;;;12.50;55.90;;;;;;5037702;28;20247;-87
2021/10/25 14:07:55;;;;;;;9.47;5.30;;;12.50;55.80;;;;;;5041998;28;20120;-86
2021/10/25 14:10:44;;;;;;;9.53;5.70;;;12.40;55.70;;;;;;5036927;28;20456;-86
2021/10/25 14:13:28;;;;;;;7.77;4.50;;;12.40;55.80;;;;;;5040586;28;20033;-86
2021/10/25 14:16:10;;;;;;;10.40;4.50;;;12.40;55.80;;;;;;5039481;28;20115;-86
2021/10/25 14:18:36;;;;;;;13.17;7.37;;;12.40;56.00;;;;;;5037466;28;20039;-86
2021/10/25 14:21:08;;;;;;;15.40;8.60;;;12.40;56.10;;;;;;5038858;28;20028;-86
2021/10/25 14:23:34;;;;;;;14.02;7.35;;;12.50;56.30;;;;;;5045418;28;20037;-87
2021/10/25 14:26:00;;;;;;;11.97;7.47;;;12.50;56.30;;;;;;5039798;28;20048;-86
2021/10/25 14:28:29;;;;;;;12.97;7.07;;;12.40;56.50;;;;;;5037267;28;20479;-86
2021/10/25 14:30:56;;;;;;;13.77;6.60;;;12.40;56.70;;;;;;5033660;28;20110;-86
2021/10/25 14:33:22;;;;;;;10.33;5.57;;;12.50;56.90;;;;;;5034494;28;20033;-85
2021/10/25 14:35:48;;;;;;;12.30;5.33;;;12.50;57.00;;;;;;5059695;28;20021;-86
2021/10/25 14:38:27;;;;;;;10.33;5.00;;;12.40;57.00;;;;;;5032298;28;20022;-85